Time;durP1;ratioP1;P1;durP2;ratioP2;P2;SDS_P1;SDS_P2;PMS_P1;PMS_P2;Temp;Humidity;BMP_temperature;BMP_pressure;BME280_temperature;BME280_humidity;BME280_pressure;Samples;Min_cycle;Max_cycle;Signal;HPM_P1;HPM_P2
2022/06/25 00:00:29;;;;;;;3.70;1.92;;;;;;;;;;5091067;28;20463;-71
2022/06/25 00:03:14;;;;;;;2.40;1.35;;;;;;;;;;5066721;28;20054;-70
2022/06/25 00:06:00;;;;;;;5.45;1.88;;;;;;;;;;5088371;28;20479;-70
2022/06/25 00:08:46;;;;;;;3.20;1.60;;;;;;;;;;5077995;28;20063;-70
2022/06/25 00:14:36;;;;;;;4.03;2.63;;;;;;;;;;5064602;28;20052;-67
2022/06/25 00:17:22;;;;;;;3.42;1.70;;;;;;;;;;5089563;28;20032;-66
2022/06/25 00:20:08;;;;;;;2.17;1.67;;;;;;;;;;5064966;28;20032;-65
2022/06/25 00:22:54;;;;;;;2.13;1.73;;;;;;;;;;5090983;28;20024;-65
2022/06/25 00:25:40;;;;;;;5.05;1.80;;;;;;;;;;5085770;28;20025;-65
2022/06/25 00:28:25;;;;;;;7.68;1.83;;;;;;;;;;5068047;28;20118;-65
2022/06/25 00:31:11;;;;;;;3.97;1.75;;;;;;;;;;5079573;28;20062;-65
2022/06/25 00:33:56;;;;;;;4.75;1.63;;;;;;;;;;5070419;28;20062;-65
2022/06/25 00:36:42;;;;;;;3.38;1.95;;;;;;;;;;5092294;28;20024;-67
2022/06/25 00:39:27;;;;;;;3.63;1.67;;;;;;;;;;5067273;28;20459;-68
2022/06/25 00:42:13;;;;;;;2.78;1.60;;;;;;;;;;5064010;28;20229;-68
2022/06/25 00:44:59;;;;;;;3.90;1.80;;;;;;;;;;5091244;28;20031;-68
2022/06/25 00:47:45;;;;;;;6.10;1.98;;;;;;;;;;5082252;28;20033;-68
2022/06/25 00:50:30;;;;;;;3.40;1.60;;;;;;;;;;5085893;28;20044;-67
2022/06/25 00:53:16;;;;;;;3.78;1.48;;;;;;;;;;5085191;28;20028;-68
2022/06/25 00:56:03;;;;;;;3.45;1.55;;;;;;;;;;5080724;28;20032;-63
2022/06/25 00:58:49;;;;;;;4.50;1.65;;;;;;;;;;5091629;28;20040;-64
2022/06/25 01:01:35;;;;;;;3.78;1.80;;;;;;;;;;5095222;28;20024;-63
2022/06/25 01:04:20;;;;;;;5.40;1.63;;;;;;;;;;5078243;28;20165;-64
2022/06/25 01:07:07;;;;;;;3.72;1.50;;;;;;;;;;5095647;28;20028;-66
2022/06/25 01:09:53;;;;;;;2.67;1.52;;;;;;;;;;5094937;28;20031;-66
2022/06/25 01:12:38;;;;;;;3.40;1.58;;;;;;;;;;5085759;28;20027;-64
2022/06/25 01:15:24;;;;;;;2.75;1.80;;;;;;;;;;5095013;28;20036;-64
2022/06/25 01:18:11;;;;;;;3.67;1.70;;;;;;;;;;5094937;28;20028;-65
2022/06/25 01:20:56;;;;;;;2.90;1.48;;;;;;;;;;5087991;28;20032;-63
2022/06/25 01:23:42;;;;;;;1.98;1.50;;;;;;;;;;5095227;28;20471;-64
2022/06/25 01:26:27;;;;;;;1.92;1.40;;;;;;;;;;5087084;28;20063;-65
2022/06/25 01:29:13;;;;;;;2.13;1.92;;;;;;;;;;5095272;28;20043;-70
2022/06/25 01:31:59;;;;;;;5.90;1.58;;;;;;;;;;5094679;28;20024;-66
2022/06/25 01:34:44;;;;;;;3.45;2.05;;;;;;;;;;5093017;28;20463;-66
2022/06/25 01:37:30;;;;;;;4.00;2.22;;;;;;;;;;5093910;28;20390;-66
2022/06/25 01:40:16;;;;;;;6.50;2.85;;;;;;;;;;5089239;28;20024;-66
2022/06/25 01:43:02;;;;;;;2.03;1.45;;;;;;;;;;5090055;28;20078;-67
2022/06/25 01:45:48;;;;;;;1.65;1.52;;;;;;;;;;5079592;28;20028;-63
2022/06/25 01:48:33;;;;;;;5.65;1.83;;;;;;;;;;5080240;28;20029;-62
2022/06/25 01:51:20;;;;;;;4.47;1.83;;;;;;;;;;5091488;28;20435;-69
2022/06/25 01:54:05;;;;;;;4.57;1.70;;;;;;;;;;5079906;28;20039;-68
2022/06/25 01:56:51;;;;;;;1.88;1.65;;;;;;;;;;5089192;28;20505;-68
2022/06/25 01:59:36;;;;;;;2.78;1.80;;;;;;;;;;5087133;28;20035;-67
2022/06/25 02:02:22;;;;;;;5.13;1.63;;;;;;;;;;5091156;28;20054;-68
2022/06/25 02:05:08;;;;;;;5.18;1.85;;;;;;;;;;5086872;28;20027;-68
2022/06/25 02:07:53;;;;;;;4.78;1.55;;;;;;;;;;5067904;28;20056;-67
2022/06/25 02:10:39;;;;;;;3.03;1.67;;;;;;;;;;5082861;28;20032;-66
2022/06/25 02:13:25;;;;;;;2.20;1.42;;;;;;;;;;5085821;28;20299;-67
2022/06/25 02:16:10;;;;;;;5.60;2.03;;;;;;;;;;5094306;28;20028;-65
2022/06/25 02:18:56;;;;;;;1.48;1.38;;;;;;;;;;5093108;28;20406;-67
2022/06/25 02:21:41;;;;;;;2.40;1.73;;;;;;;;;;5087491;28;20043;-67
2022/06/25 02:24:27;;;;;;;1.60;1.42;;;;;;;;;;5094154;28;20097;-66
2022/06/25 02:27:13;;;;;;;1.85;1.50;;;;;;;;;;5086056;28;20501;-64
2022/06/25 02:29:58;;;;;;;2.10;1.42;;;;;;;;;;5093669;28;20020;-64
2022/06/25 02:32:44;;;;;;;5.10;2.10;;;;;;;;;;5087889;28;20115;-64
2022/06/25 02:35:29;;;;;;;2.40;1.55;;;;;;;;;;5093423;28;20054;-64
2022/06/25 02:38:15;;;;;;;3.15;1.55;;;;;;;;;;5092445;28;20099;-65
2022/06/25 02:41:01;;;;;;;2.30;1.52;;;;;;;;;;5079285;28;20068;-65
2022/06/25 02:43:46;;;;;;;2.13;1.83;;;;;;;;;;5069796;28;20024;-66
2022/06/25 02:46:32;;;;;;;2.92;1.65;;;;;;;;;;5092840;28;20022;-65
2022/06/25 02:49:17;;;;;;;2.78;1.30;;;;;;;;;;5068866;28;20117;-65
2022/06/25 02:52:03;;;;;;;2.83;1.48;;;;;;;;;;5063793;28;20040;-67
2022/06/25 02:54:49;;;;;;;2.05;1.40;;;;;;;;;;5088979;28;20371;-66
2022/06/25 03:00:39;;;;;;;1.55;1.42;;;;;;;;;;5066167;28;20036;-66
2022/06/25 03:03:24;;;;;;;2.00;1.60;;;;;;;;;;5058408;28;20030;-64
2022/06/25 03:06:10;;;;;;;4.70;1.77;;;;;;;;;;5072152;28;20025;-65
2022/06/25 03:08:56;;;;;;;2.20;1.50;;;;;;;;;;5071749;28;20029;-65
2022/06/25 03:11:41;;;;;;;4.68;1.58;;;;;;;;;;5071964;28;20069;-65
2022/06/25 03:14:27;;;;;;;2.03;1.65;;;;;;;;;;5071935;28;20107;-64
2022/06/25 03:17:13;;;;;;;2.05;1.65;;;;;;;;;;5073109;28;20025;-65
2022/06/25 03:19:58;;;;;;;5.22;1.67;;;;;;;;;;5072115;28;20490;-65
2022/06/25 03:22:44;;;;;;;2.13;1.70;;;;;;;;;;5068395;28;20036;-65
2022/06/25 03:25:30;;;;;;;2.00;1.55;;;;;;;;;;5071798;28;20032;-63
2022/06/25 03:28:15;;;;;;;5.70;2.13;;;;;;;;;;5071957;28;20032;-63
2022/06/25 03:31:01;;;;;;;6.43;1.80;;;;;;;;;;5072341;28;20043;-65
2022/06/25 03:33:47;;;;;;;2.45;1.55;;;;;;;;;;5069656;28;20020;-65
2022/06/25 03:36:33;;;;;;;3.72;1.70;;;;;;;;;;5070847;28;20024;-69
2022/06/25 03:39:18;;;;;;;2.65;2.38;;;;;;;;;;5070141;28;20025;-67
2022/06/25 03:42:04;;;;;;;4.20;1.42;;;;;;;;;;5059074;28;20032;-65
2022/06/25 03:44:50;;;;;;;1.60;1.50;;;;;;;;;;5071617;28;20245;-65
2022/06/25 03:47:35;;;;;;;4.85;1.70;;;;;;;;;;5072672;28;20028;-64
2022/06/25 03:50:21;;;;;;;5.68;1.77;;;;;;;;;;5071201;28;20094;-64
2022/06/25 03:53:07;;;;;;;5.07;1.75;;;;;;;;;;5072526;28;20125;-64
2022/06/25 03:55:52;;;;;;;4.78;1.80;;;;;;;;;;5070421;28;20154;-69
2022/06/25 03:58:38;;;;;;;1.85;1.50;;;;;;;;;;5072265;28;20025;-67
2022/06/25 04:01:23;;;;;;;3.75;1.58;;;;;;;;;;5071404;28;20037;-67
2022/06/25 04:04:09;;;;;;;3.35;1.40;;;;;;;;;;5072232;28;20124;-66
2022/06/25 04:06:54;;;;;;;5.35;1.98;;;;;;;;;;5071350;28;20059;-71
2022/06/25 04:09:40;;;;;;;2.92;1.38;;;;;;;;;;5070584;28;20048;-66
2022/06/25 04:12:26;;;;;;;3.60;1.45;;;;;;;;;;5071423;28;20463;-64
2022/06/25 04:15:11;;;;;;;3.63;1.35;;;;;;;;;;5071685;28;20024;-65
2022/06/25 04:17:57;;;;;;;3.78;1.77;;;;;;;;;;5073142;28;20025;-63
2022/06/25 04:20:42;;;;;;;3.20;1.70;;;;;;;;;;5070742;28;20119;-60
2022/06/25 04:23:28;;;;;;;2.85;1.45;;;;;;;;;;5071941;28;20441;-62
2022/06/25 04:26:14;;;;;;;4.82;1.77;;;;;;;;;;5070924;28;20037;-63
2022/06/25 04:29:08;;;;;;;5.10;1.60;;;;;;;;;;5071456;28;20391;-63
2022/06/25 04:31:53;;;;;;;1.73;1.42;;;;;;;;;;5060428;28;20102;-64
2022/06/25 04:34:39;;;;;;;1.55;1.45;;;;;;;;;;5073317;28;20024;-65
2022/06/25 04:37:24;;;;;;;2.63;1.70;;;;;;;;;;5076091;28;20391;-63
2022/06/25 04:40:10;;;;;;;3.83;1.80;;;;;;;;;;5063215;28;20115;-63
2022/06/25 04:42:56;;;;;;;3.03;1.80;;;;;;;;;;5075562;28;20037;-62
2022/06/25 04:45:41;;;;;;;1.85;1.75;;;;;;;;;;5075799;28;20028;-62
2022/06/25 04:48:27;;;;;;;5.68;1.67;;;;;;;;;;5075514;28;20111;-62
2022/06/25 04:51:12;;;;;;;2.33;1.33;;;;;;;;;;5075416;28;20442;-63
2022/06/25 04:53:58;;;;;;;1.85;1.50;;;;;;;;;;5059799;28;20078;-69
2022/06/25 04:56:44;;;;;;;3.53;1.42;;;;;;;;;;5074489;28;20464;-68
2022/06/25 04:59:29;;;;;;;5.50;1.50;;;;;;;;;;5075615;28;20589;-68
2022/06/25 05:02:15;;;;;;;2.03;1.40;;;;;;;;;;5073232;28;20025;-67
2022/06/25 05:05:00;;;;;;;1.63;1.50;;;;;;;;;;5075214;28;20033;-68
2022/06/25 05:07:46;;;;;;;2.78;1.50;;;;;;;;;;5075190;28;20021;-69
2022/06/25 05:10:32;;;;;;;3.08;1.60;;;;;;;;;;5074220;28;20055;-68
2022/06/25 05:13:17;;;;;;;2.30;1.45;;;;;;;;;;5059622;28;20039;-62
2022/06/25 05:16:03;;;;;;;4.15;1.67;;;;;;;;;;5074763;28;20028;-63
2022/06/25 05:18:48;;;;;;;4.38;1.80;;;;;;;;;;5073857;28;20064;-62
2022/06/25 05:21:34;;;;;;;4.40;1.48;;;;;;;;;;5063492;28;20032;-63
2022/06/25 05:24:19;;;;;;;2.95;1.70;;;;;;;;;;5073761;28;20028;-63
2022/06/25 05:27:05;;;;;;;3.97;1.55;;;;;;;;;;5075132;28;20040;-68
2022/06/25 05:29:51;;;;;;;3.95;1.80;;;;;;;;;;5073637;28;20021;-67
2022/06/25 05:32:36;;;;;;;1.90;1.58;;;;;;;;;;5074630;28;20033;-67
2022/06/25 05:35:22;;;;;;;1.38;1.27;;;;;;;;;;5074949;28;20086;-67
2022/06/25 05:38:08;;;;;;;3.83;1.77;;;;;;;;;;5072931;28;20032;-69
2022/06/25 05:40:54;;;;;;;2.92;1.40;;;;;;;;;;5073385;28;20055;-66
2022/06/25 05:43:40;;;;;;;3.33;1.50;;;;;;;;;;5058901;28;20056;-67
2022/06/25 05:46:25;;;;;;;2.17;1.50;;;;;;;;;;5074527;28;20029;-62
2022/06/25 05:49:11;;;;;;;3.22;1.55;;;;;;;;;;5073827;28;20064;-65
2022/06/25 05:51:56;;;;;;;2.85;1.65;;;;;;;;;;5062020;28;20042;-65
2022/06/25 05:54:42;;;;;;;4.75;2.70;;;;;;;;;;5073362;28;20123;-63
2022/06/25 05:57:27;;;;;;;3.00;1.63;;;;;;;;;;5073659;28;20494;-63
2022/06/25 06:00:13;;;;;;;3.70;1.50;;;;;;;;;;5073526;28;20028;-64
2022/06/25 06:02:59;;;;;;;2.10;1.40;;;;;;;;;;5073850;28;20394;-64
2022/06/25 06:05:44;;;;;;;2.92;1.80;;;;;;;;;;5058887;28;20027;-69
2022/06/25 06:08:30;;;;;;;3.20;1.33;;;;;;;;;;5071438;28;20105;-66
2022/06/25 06:11:15;;;;;;;3.60;1.00;;;;;;;;;;5061922;28;20352;-64
2022/06/25 06:14:01;;;;;;;5.38;1.52;;;;;;;;;;5073396;28;20028;-66
2022/06/25 06:16:46;;;;;;;2.17;1.50;;;;;;;;;;5074159;28;20025;-67
2022/06/25 06:19:32;;;;;;;3.67;1.52;;;;;;;;;;5073412;28;20116;-65
2022/06/25 06:22:17;;;;;;;3.35;1.70;;;;;;;;;;5073388;28;20079;-65
2022/06/25 06:25:03;;;;;;;3.78;1.70;;;;;;;;;;5072751;28;20028;-67
2022/06/25 06:27:49;;;;;;;3.95;1.40;;;;;;;;;;5058635;28;20034;-75
2022/06/25 06:30:34;;;;;;;2.22;1.23;;;;;;;;;;5073911;28;20552;-72
2022/06/25 06:33:20;;;;;;;1.00;1.00;;;;;;;;;;5065486;28;20033;-72
2022/06/25 06:36:06;;;;;;;3.33;1.58;;;;;;;;;;5073484;28;20067;-73
2022/06/25 06:38:51;;;;;;;3.03;1.30;;;;;;;;;;5072358;28;20033;-73
2022/06/25 06:41:37;;;;;;;3.78;1.10;;;;;;;;;;5073558;28;20032;-66
2022/06/25 06:44:22;;;;;;;1.77;0.98;;;;;;;;;;5058464;28;20041;-63
2022/06/25 06:47:08;;;;;;;4.45;1.23;;;;;;;;;;5073283;28;20052;-63
2022/06/25 06:49:53;;;;;;;3.35;1.38;;;;;;;;;;5072486;28;20036;-64
2022/06/25 06:52:39;;;;;;;2.63;1.30;;;;;;;;;;5057599;28;20165;-63
2022/06/25 06:55:25;;;;;;;4.00;1.70;;;;;;;;;;5059314;28;20039;-64
2022/06/25 06:58:10;;;;;;;3.15;1.10;;;;;;;;;;5070424;28;20024;-63
2022/06/25 07:00:56;;;;;;;5.15;1.17;;;;;;;;;;5071868;28;20368;-70
2022/06/25 07:03:42;;;;;;;4.10;1.20;;;;;;;;;;5073132;28;20030;-64
2022/06/25 07:06:27;;;;;;;4.20;1.23;;;;;;;;;;5071190;28;20489;-65
2022/06/25 07:09:13;;;;;;;5.85;1.10;;;;;;;;;;5071348;28;20036;-65
2022/06/25 07:11:59;;;;;;;2.40;1.15;;;;;;;;;;5057162;28;20064;-65
2022/06/25 07:14:44;;;;;;;3.40;1.50;;;;;;;;;;5061967;28;20029;-64
2022/06/25 07:17:30;;;;;;;3.60;1.70;;;;;;;;;;5056054;28;20047;-64
2022/06/25 07:20:15;;;;;;;3.05;1.17;;;;;;;;;;5072993;28;20042;-67
2022/06/25 07:23:01;;;;;;;1.33;1.10;;;;;;;;;;5070946;28;20129;-64
2022/06/25 07:25:47;;;;;;;1.58;1.02;;;;;;;;;;5072802;28;20431;-65
2022/06/25 07:28:32;;;;;;;1.67;1.20;;;;;;;;;;5072954;28;20025;-65
2022/06/25 07:31:18;;;;;;;3.50;1.52;;;;;;;;;;5057288;28;20036;-65
2022/06/25 07:34:03;;;;;;;2.33;1.40;;;;;;;;;;5072494;28;20464;-65
2022/06/25 07:36:49;;;;;;;3.55;1.50;;;;;;;;;;5057826;28;20028;-67
2022/06/25 07:39:34;;;;;;;4.80;1.65;;;;;;;;;;5070437;28;20032;-66
2022/06/25 07:42:20;;;;;;;2.80;1.30;;;;;;;;;;5072003;28;20033;-65
2022/06/25 07:45:06;;;;;;;1.73;1.30;;;;;;;;;;5067743;28;20028;-66
2022/06/25 07:47:51;;;;;;;1.98;1.35;;;;;;;;;;5071557;28;20184;-64
2022/06/25 07:53:41;;;;;;;6.28;1.50;;;;;;;;;;5064167;28;20466;-66
2022/06/25 07:56:27;;;;;;;2.55;1.48;;;;;;;;;;5071286;28;20025;-63
2022/06/25 07:59:13;;;;;;;4.70;1.60;;;;;;;;;;5071545;28;20039;-67
2022/06/25 08:01:58;;;;;;;3.17;1.77;;;;;;;;;;5071323;28;20035;-67
2022/06/25 08:04:44;;;;;;;3.92;1.90;;;;;;;;;;5071683;28;20445;-66
2022/06/25 08:07:29;;;;;;;2.65;1.63;;;;;;;;;;5074188;28;20028;-67
2022/06/25 08:10:15;;;;;;;4.20;2.00;;;;;;;;;;5076337;28;20032;-67
2022/06/25 08:13:02;;;;;;;3.78;1.75;;;;;;;;;;5075632;28;20024;-67
2022/06/25 08:15:48;;;;;;;2.53;1.50;;;;;;;;;;5076403;28;20361;-67
2022/06/25 08:18:33;;;;;;;4.85;1.50;;;;;;;;;;5074829;28;20081;-66
2022/06/25 08:21:19;;;;;;;2.80;1.75;;;;;;;;;;5062122;28;20048;-64
2022/06/25 08:24:05;;;;;;;2.22;1.42;;;;;;;;;;5074818;28;20471;-65
2022/06/25 08:26:50;;;;;;;5.68;1.55;;;;;;;;;;5060920;28;20033;-66
2022/06/25 08:29:36;;;;;;;2.70;1.45;;;;;;;;;;5075673;28;20039;-65
2022/06/25 08:32:22;;;;;;;2.92;1.60;;;;;;;;;;5074758;28;20032;-68
2022/06/25 08:35:08;;;;;;;1.92;1.25;;;;;;;;;;5066055;28;20426;-67
2022/06/25 08:37:53;;;;;;;4.38;1.52;;;;;;;;;;5069395;28;20029;-67
2022/06/25 08:40:39;;;;;;;6.10;1.90;;;;;;;;;;5074974;28;20036;-68
2022/06/25 08:43:25;;;;;;;4.88;1.77;;;;;;;;;;5074632;28;20028;-67
2022/06/25 08:46:10;;;;;;;2.97;1.38;;;;;;;;;;5075549;28;20033;-67
2022/06/25 08:48:56;;;;;;;4.15;1.50;;;;;;;;;;5074790;28;20541;-67
2022/06/25 08:51:43;;;;;;;1.75;1.08;;;;;;;;;;5073265;28;20024;-64
2022/06/25 08:54:30;;;;;;;3.47;1.40;;;;;;;;;;5075114;28;20081;-67
2022/06/25 08:57:15;;;;;;;3.45;1.20;;;;;;;;;;5059599;28;20538;-68
2022/06/25 09:00:01;;;;;;;2.45;1.40;;;;;;;;;;5075328;28;20044;-67
2022/06/25 09:02:47;;;;;;;3.60;1.40;;;;;;;;;;5060448;28;20502;-67
2022/06/25 09:05:33;;;;;;;2.17;1.33;;;;;;;;;;5059061;28;20035;-67
2022/06/25 09:08:19;;;;;;;4.25;1.73;;;;;;;;;;5074619;28;20032;-65
2022/06/25 09:11:05;;;;;;;3.35;1.40;;;;;;;;;;5062116;28;20028;-65
2022/06/25 09:13:51;;;;;;;4.28;1.23;;;;;;;;;;5074822;28;20465;-64
2022/06/25 09:16:36;;;;;;;3.58;1.05;;;;;;;;;;5074001;28;20024;-64
2022/06/25 09:19:30;;;;;;;3.60;1.50;;;;;;;;;;5054891;28;20046;-65
2022/06/25 09:22:19;;;;;;;2.85;1.40;;;;;;;;;;5069474;28;20475;-64
2022/06/25 09:25:05;;;;;;;2.00;1.10;;;;;;;;;;5073258;28;20056;-66
2022/06/25 09:27:51;;;;;;;1.50;1.20;;;;;;;;;;5058421;28;20032;-62
2022/06/25 09:30:37;;;;;;;4.30;1.70;;;;;;;;;;5075304;28;20024;-72
2022/06/25 09:33:22;;;;;;;3.95;1.58;;;;;;;;;;5074490;28;20103;-71
2022/06/25 09:36:09;;;;;;;4.60;1.55;;;;;;;;;;5057284;28;20383;-71
2022/06/25 09:38:55;;;;;;;3.08;1.67;;;;;;;;;;5060342;28;20501;-71
2022/06/25 09:41:48;;;;;;;3.70;1.60;;;;;;;;;;5059590;28;20553;-70
2022/06/25 09:44:34;;;;;;;3.45;1.33;;;;;;;;;;5073987;28;20037;-70
2022/06/25 09:47:19;;;;;;;4.07;1.70;;;;;;;;;;5073794;28;20032;-62
2022/06/25 09:50:23;;;;;;;4.30;1.40;;;;;;;;;;5057696;28;20032;-66
2022/06/25 09:53:09;;;;;;;5.13;1.67;;;;;;;;;;5072955;28;20522;-65
2022/06/25 09:55:54;;;;;;;2.33;1.30;;;;;;;;;;5074351;28;20371;-65
2022/06/25 09:58:41;;;;;;;4.80;1.30;;;;;;;;;;5060290;28;20107;-66
2022/06/25 10:01:28;;;;;;;1.98;1.63;;;;;;;;;;5074160;28;20036;-67
2022/06/25 10:04:14;;;;;;;4.97;1.70;;;;;;;;;;5072634;28;20043;-66
2022/06/25 10:07:02;;;;;;;4.43;1.75;;;;;;;;;;5058256;28;20074;-62
2022/06/25 10:09:47;;;;;;;4.45;1.73;;;;;;;;;;5072967;28;20024;-65
2022/06/25 10:12:33;;;;;;;2.90;1.33;;;;;;;;;;5057834;28;20029;-61
2022/06/25 10:15:19;;;;;;;3.55;1.60;;;;;;;;;;5074653;28;20111;-62
2022/06/25 10:18:07;;;;;;;2.40;1.50;;;;;;;;;;5073780;28;20441;-62
2022/06/25 10:20:52;;;;;;;3.53;1.38;;;;;;;;;;5072149;28;20421;-62
2022/06/25 10:23:41;;;;;;;2.80;1.40;;;;;;;;;;5073770;28;20028;-65
2022/06/25 10:26:27;;;;;;;2.80;1.30;;;;;;;;;;5073728;28;20395;-64
2022/06/25 10:29:29;;;;;;;3.13;1.98;;;;;;;;;;5072828;28;20040;-64
2022/06/25 10:32:16;;;;;;;2.00;1.65;;;;;;;;;;5065783;28;20090;-65
2022/06/25 10:35:02;;;;;;;4.03;1.85;;;;;;;;;;5057390;28;20055;-64
2022/06/25 10:37:58;;;;;;;5.97;1.55;;;;;;;;;;5058835;28;20121;-64
2022/06/25 10:40:49;;;;;;;2.13;1.50;;;;;;;;;;5072200;28;20067;-65
2022/06/25 10:43:37;;;;;;;2.95;1.33;;;;;;;;;;5061515;28;20036;-66
2022/06/25 10:46:22;;;;;;;2.67;1.40;;;;;;;;;;5058163;28;20115;-67
2022/06/25 10:49:17;;;;;;;5.35;1.65;;;;;;;;;;5072879;28;20047;-66
2022/06/25 10:52:03;;;;;;;3.83;1.58;;;;;;;;;;5060409;28;20062;-66
2022/06/25 10:54:50;;;;;;;2.58;1.60;;;;;;;;;;5071985;28;20037;-67
2022/06/25 10:57:39;;;;;;;3.90;2.13;;;;;;;;;;5072147;28;20446;-66
2022/06/25 11:00:24;;;;;;;7.35;2.00;;;;;;;;;;5072575;28;20056;-62
2022/06/25 11:03:10;;;;;;;2.90;1.33;;;;;;;;;;5073049;28;20036;-66
2022/06/25 11:06:00;;;;;;;5.38;1.83;;;;;;;;;;5071532;28;20020;-64
2022/06/25 11:08:45;;;;;;;4.13;1.50;;;;;;;;;;5072748;28;20025;-64
2022/06/25 11:11:32;;;;;;;1.58;1.38;;;;;;;;;;5071418;28;20545;-66
2022/06/25 11:14:22;;;;;;;1.92;1.52;;;;;;;;;;5071035;28;20031;-63
2022/06/25 11:17:08;;;;;;;5.30;1.73;;;;;;;;;;5071400;28;20039;-71
2022/06/25 11:19:54;;;;;;;3.28;1.65;;;;;;;;;;5070995;28;20051;-70
2022/06/25 11:22:51;;;;;;;2.28;1.58;;;;;;;;;;5072233;28;20060;-70
2022/06/25 11:28:52;;;;;;;2.67;1.42;;;;;;;;;;5063771;28;20068;-69
2022/06/25 11:31:41;;;;;;;3.22;1.42;;;;;;;;;;5072191;28;20029;-71
2022/06/25 11:34:26;;;;;;;;;;;;;;;;;;5068033;28;20040;-70
2022/06/25 11:37:12;;;;;;;3.92;1.50;;;;;;;;;;5071445;28;19919;-64
2022/06/25 11:39:58;;;;;;;2.42;1.17;;;;;;;;;;5056360;28;20032;-66
2022/06/25 11:42:43;;;;;;;2.88;1.50;;;;;;;;;;5070906;28;20055;-66
2022/06/25 11:45:30;;;;;;;2.63;1.55;;;;;;;;;;5071831;28;20036;-67
2022/06/25 11:48:16;;;;;;;2.03;1.35;;;;;;;;;;5069924;28;20017;-67
2022/06/25 11:51:03;;;;;;;2.17;1.23;;;;;;;;;;5071131;28;20020;-66
2022/06/25 11:53:48;;;;;;;3.95;1.42;;;;;;;;;;5060549;28;20024;-65
2022/06/25 11:56:34;;;;;;;5.03;1.52;;;;;;;;;;5072046;28;20090;-66
2022/06/25 11:59:23;;;;;;;1.52;1.23;;;;;;;;;;5071725;28;20028;-66
2022/06/25 12:02:09;;;;;;;3.42;1.40;;;;;;;;;;5071217;28;20043;-66
2022/06/25 12:04:56;;;;;;;2.53;1.75;;;;;;;;;;5071100;28;20027;-69
2022/06/25 12:07:44;;;;;;;2.42;1.30;;;;;;;;;;5070200;28;20450;-66
2022/06/25 12:10:29;;;;;;;4.63;1.30;;;;;;;;;;5071706;28;20479;-65
2022/06/25 12:13:15;;;;;;;3.05;1.40;;;;;;;;;;5071107;28;20028;-67
2022/06/25 12:16:02;;;;;;;2.67;1.60;;;;;;;;;;5069735;28;20039;-70
2022/06/25 12:18:48;;;;;;;2.92;1.23;;;;;;;;;;5065158;28;20112;-71
2022/06/25 12:21:34;;;;;;;2.20;1.33;;;;;;;;;;5060007;28;20047;-71
2022/06/25 12:24:20;;;;;;;2.08;1.17;;;;;;;;;;5056652;28;20032;-71
2022/06/25 12:27:06;;;;;;;3.97;1.73;;;;;;;;;;5071987;28;20177;-70
2022/06/25 12:29:53;;;;;;;3.05;1.30;;;;;;;;;;5058902;28;20033;-71
2022/06/25 12:32:40;;;;;;;2.83;1.27;;;;;;;;;;5069933;28;20056;-67
2022/06/25 12:35:28;;;;;;;1.25;1.02;;;;;;;;;;5062941;28;20111;-70
2022/06/25 12:38:14;;;;;;;2.42;1.30;;;;;;;;;;5056504;28;20062;-70
2022/06/25 12:41:00;;;;;;;1.65;1.08;;;;;;;;;;5070477;28;20024;-70
2022/06/25 12:43:47;;;;;;;1.45;1.13;;;;;;;;;;5056519;28;20043;-72
2022/06/25 12:46:32;;;;;;;2.75;1.17;;;;;;;;;;5071081;28;20395;-71
2022/06/25 12:49:18;;;;;;;2.30;1.42;;;;;;;;;;5070649;28;20048;-65
2022/06/25 12:52:03;;;;;;;1.73;1.20;;;;;;;;;;5060444;28;20417;-68
2022/06/25 12:54:53;;;;;;;2.03;1.20;;;;;;;;;;5075248;28;20413;-67
2022/06/25 12:57:39;;;;;;;2.28;1.40;;;;;;;;;;5073738;28;20036;-68
2022/06/25 13:00:25;;;;;;;1.90;1.42;;;;;;;;;;5058778;28;20151;-66
2022/06/25 13:03:11;;;;;;;4.63;1.67;;;;;;;;;;5072990;28;20079;-67
2022/06/25 13:05:57;;;;;;;3.67;1.45;;;;;;;;;;5060842;28;20467;-66
2022/06/25 13:08:42;;;;;;;1.38;1.10;;;;;;;;;;5072238;28;20028;-66
2022/06/25 13:11:28;;;;;;;3.65;1.65;;;;;;;;;;5074893;28;20403;-64
2022/06/25 13:14:13;;;;;;;1.85;1.13;;;;;;;;;;5072501;28;20028;-64
2022/06/25 13:16:59;;;;;;;4.13;1.40;;;;;;;;;;5075017;28;20513;-62
2022/06/25 13:19:45;;;;;;;4.78;1.42;;;;;;;;;;5073507;28;20487;-63
2022/06/25 13:22:31;;;;;;;2.67;1.27;;;;;;;;;;5074835;28;20478;-64
2022/06/25 13:25:16;;;;;;;1.70;1.23;;;;;;;;;;5074869;28;20074;-66
2022/06/25 13:28:02;;;;;;;2.30;1.30;;;;;;;;;;5073814;28;20028;-64
2022/06/25 13:30:47;;;;;;;2.40;1.15;;;;;;;;;;5059129;28;20025;-64
2022/06/25 13:33:33;;;;;;;3.33;1.60;;;;;;;;;;5059007;28;20107;-65
2022/06/25 13:36:18;;;;;;;3.67;1.55;;;;;;;;;;5060279;28;20032;-63
2022/06/25 13:39:05;;;;;;;1.40;1.23;;;;;;;;;;5072544;28;20035;-64
2022/06/25 13:41:51;;;;;;;3.60;1.33;;;;;;;;;;5048457;28;20112;-65
2022/06/25 13:44:37;;;;;;;1.80;1.10;;;;;;;;;;5074731;28;20087;-64
2022/06/25 13:47:23;;;;;;;1.80;1.45;;;;;;;;;;5059025;28;20111;-67
2022/06/25 13:50:09;;;;;;;2.33;1.30;;;;;;;;;;5059983;28;20032;-68
2022/06/25 13:52:54;;;;;;;2.38;1.30;;;;;;;;;;5059299;28;20121;-67
2022/06/25 13:55:40;;;;;;;2.60;1.35;;;;;;;;;;5074695;28;20358;-67
2022/06/25 13:58:26;;;;;;;4.00;1.38;;;;;;;;;;5073076;28;20086;-67
2022/06/25 14:01:11;;;;;;;1.33;1.10;;;;;;;;;;5074053;28;20028;-68
2022/06/25 14:03:57;;;;;;;3.75;1.52;;;;;;;;;;5072465;28;20032;-64
2022/06/25 14:06:43;;;;;;;2.42;1.30;;;;;;;;;;5072960;28;20036;-64
2022/06/25 14:09:28;;;;;;;1.00;1.00;;;;;;;;;;5071605;28;20248;-65
2022/06/25 14:12:14;;;;;;;1.25;1.10;;;;;;;;;;5073490;28;20371;-65
2022/06/25 14:14:59;;;;;;;1.25;1.10;;;;;;;;;;5058651;28;20016;-64
2022/06/25 14:17:45;;;;;;;1.67;1.25;;;;;;;;;;5072753;28;20043;-65
2022/06/25 14:20:31;;;;;;;2.47;1.10;;;;;;;;;;5058940;28;20029;-65
2022/06/25 14:23:16;;;;;;;3.90;1.55;;;;;;;;;;5073728;28;20039;-68
2022/06/25 14:26:02;;;;;;;2.03;1.02;;;;;;;;;;5073274;28;20036;-71
2022/06/25 14:28:48;;;;;;;2.42;1.52;;;;;;;;;;5072601;28;20035;-72
2022/06/25 14:31:36;;;;;;;2.03;1.45;;;;;;;;;;5073778;28;20062;-72
2022/06/25 14:34:22;;;;;;;1.23;1.07;;;;;;;;;;5059052;28;20403;-71
2022/06/25 14:43:15;;;;;;;1.80;1.15;;;;;;;;;;5073384;28;20036;-64
2022/06/25 14:46:01;;;;;;;1.73;1.23;;;;;;;;;;5072575;28;20089;-63
2022/06/25 14:48:46;;;;;;;1.40;1.17;;;;;;;;;;5071559;28;20020;-61
2022/06/25 14:51:32;;;;;;;2.33;1.50;;;;;;;;;;5072157;28;20016;-62
2022/06/25 14:54:18;;;;;;;1.73;1.23;;;;;;;;;;5073301;28;20038;-62
2022/06/25 14:57:03;;;;;;;2.85;1.70;;;;;;;;;;5073239;28;20040;-61
2022/06/25 14:59:49;;;;;;;2.97;1.77;;;;;;;;;;5071458;28;20020;-66
2022/06/25 15:02:36;;;;;;;1.90;1.00;;;;;;;;;;5071930;28;20028;-62
2022/06/25 15:05:25;;;;;;;3.28;2.30;;;;;;;;;;5071803;28;20067;-63
2022/06/25 15:08:11;;;;;;;2.72;1.63;;;;;;;;;;5072971;28;20048;-62
2022/06/25 15:10:57;;;;;;;1.52;1.35;;;;;;;;;;5071634;28;20036;-62
2022/06/25 15:13:42;;;;;;;2.20;1.73;;;;;;;;;;5072488;28;20032;-62
2022/06/25 15:16:28;;;;;;;2.03;1.48;;;;;;;;;;5072022;28;20028;-67
2022/06/25 15:19:15;;;;;;;1.83;1.33;;;;;;;;;;5072547;28;20371;-67
2022/06/25 15:22:00;;;;;;;3.22;1.70;;;;;;;;;;5073322;28;20124;-66
2022/06/25 15:24:46;;;;;;;2.67;1.70;;;;;;;;;;5059594;28;20024;-66
2022/06/25 15:27:31;;;;;;;3.30;1.50;;;;;;;;;;5071635;28;20036;-67
2022/06/25 15:30:17;;;;;;;3.08;1.40;;;;;;;;;;5072722;28;20433;-66
2022/06/25 15:33:03;;;;;;;3.78;1.60;;;;;;;;;;5069818;28;20043;-66
2022/06/25 15:35:48;;;;;;;3.33;1.38;;;;;;;;;;5071061;28;20024;-70
2022/06/25 15:38:34;;;;;;;5.28;1.88;;;;;;;;;;5046541;28;20063;-65
2022/06/25 15:41:20;;;;;;;2.25;1.50;;;;;;;;;;5071981;28;20028;-66
2022/06/25 15:44:06;;;;;;;3.22;1.50;;;;;;;;;;5071942;28;20079;-67
2022/06/25 15:46:52;;;;;;;2.22;1.20;;;;;;;;;;5067355;28;20455;-66
2022/06/25 15:49:37;;;;;;;1.80;1.20;;;;;;;;;;5071836;28;20024;-67
2022/06/25 15:52:23;;;;;;;2.30;1.70;;;;;;;;;;5071017;28;20356;-67
2022/06/25 15:55:08;;;;;;;2.50;1.42;;;;;;;;;;5072224;28;20063;-68
2022/06/25 15:57:54;;;;;;;2.90;1.80;;;;;;;;;;5071898;28;20367;-72
2022/06/25 16:00:40;;;;;;;2.72;1.30;;;;;;;;;;5069425;28;20435;-70
2022/06/25 16:03:25;;;;;;;1.65;1.55;;;;;;;;;;5069984;28;20047;-71
2022/06/25 16:06:11;;;;;;;2.40;1.67;;;;;;;;;;5072212;28;20059;-70
2022/06/25 16:08:57;;;;;;;1.40;1.30;;;;;;;;;;5055255;28;20040;-70
2022/06/25 16:11:42;;;;;;;2.28;1.40;;;;;;;;;;5062750;28;20028;-65
2022/06/25 16:14:29;;;;;;;1.90;1.42;;;;;;;;;;5058070;28;20024;-65
2022/06/25 16:17:14;;;;;;;1.83;1.30;;;;;;;;;;5070212;28;20139;-65
2022/06/25 16:20:00;;;;;;;3.45;1.40;;;;;;;;;;5072287;28;20020;-67
2022/06/25 16:22:46;;;;;;;4.60;1.33;;;;;;;;;;5071962;28;20474;-66
2022/06/25 16:25:31;;;;;;;1.90;1.33;;;;;;;;;;5071024;28;20075;-66
2022/06/25 16:28:17;;;;;;;1.65;1.20;;;;;;;;;;5062423;28;20107;-66
2022/06/25 16:31:06;;;;;;;3.78;1.40;;;;;;;;;;5074532;28;20107;-62
2022/06/25 16:33:51;;;;;;;2.70;1.50;;;;;;;;;;5074281;28;20163;-64
2022/06/25 16:36:37;;;;;;;8.75;2.08;;;;;;;;;;5062451;28;20041;-66
2022/06/25 16:39:23;;;;;;;1.80;1.58;;;;;;;;;;5075788;28;20032;-67
2022/06/25 16:42:08;;;;;;;3.10;1.40;;;;;;;;;;5073828;28;20460;-65
2022/06/25 16:44:54;;;;;;;25.30;10.27;;;;;;;;;;5074976;28;20035;-66
2022/06/25 16:47:39;;;;;;;4.32;2.22;;;;;;;;;;5075294;28;20043;-64
2022/06/25 16:50:25;;;;;;;4.55;2.63;;;;;;;;;;5075999;28;20082;-67
2022/06/25 16:53:10;;;;;;;8.07;4.32;;;;;;;;;;5073808;28;20475;-66